Hikarimaru No.17 — JD2956 — position and weather

sailwx.info

Track history (hours):
 
Tides and Currents Weather Stations Pressure Air Temp Water Temp Dewpoint Dewpoint Depression Visibility Wind Speed Wind Dir Waves Ship Positions

Hikarimaru No.17

Last reported at 2017-Feb-20 21:26 UTC. Time now 2017-Feb-20 22:28 UTC.
Position N 35°32' E 140°02'.

Length 105 m; draft 6.5 m.

Type: Tanker. MMSI: 431000984.

Date/timePositionNaut miles runAvg speedWind from/ knotsBaromVisibWave heightAir tempDewpointWater temp
2017-Feb-20 21:26N 35°32' E 140°02'0 0.0
2017-Feb-20 20:10N 35°32' E 140°02'0 0.0
2017-Feb-20 18:33N 35°32' E 140°02'0 0.0
2017-Feb-20 17:32N 35°32' E 140°02'0 0.0
2017-Feb-20 16:30N 35°32' E 140°02'0 0.0
2017-Feb-20 15:32N 35°32' E 140°02'0 0.0
2017-Feb-20 14:30N 35°32' E 140°02'0 0.1
2017-Feb-20 13:32N 35°32' E 140°02'0 0.1
2017-Feb-20 12:33N 35°32' E 140°02'0 0.0
2017-Feb-20 10:18N 35°32' E 140°02'0 0.0
2017-Feb-20 02:31N 35°32' E 140°02'0 0.0
2017-Feb-20 01:24N 35°32' E 140°02'0 0.0
2017-Feb-20 00:28N 35°32' E 140°02'0 0.1
2017-Feb-19 23:32N 35°32' E 140°02'0 0.0
2017-Feb-19 22:27N 35°32' E 140°02'0 0.0
2017-Feb-19 21:29N 35°32' E 140°02'0 0.1
2017-Feb-19 20:26N 35°32' E 140°02'1011.4
2017-Feb-19 19:33N 35°28' E 139°51'1211.6
2017-Feb-19 18:33N 35°17' E 139°45'1111.3
2017-Feb-19 17:33N 35°06' E 139°43'1312.9
2017-Feb-19 16:31N 34°58' E 139°30'23010.8
2017-Feb-18 19:17N 33°60' E 134°60'1113.2
2017-Feb-18 18:28N 34°11' E 134°59'1211.7
2017-Feb-18 17:24N 34°23' E 135°02'1112.7
2017-Feb-18 16:33N 34°28' E 135°13'1111.3
2017-Feb-18 15:33N 34°33' E 135°25'0 0.3
2017-Feb-18 14:33N 34°33' E 135°26'0 0.0
2017-Feb-18 13:33N 34°33' E 135°26'0 0.0
2017-Feb-18 12:33N 34°33' E 135°26'0 0.0
2017-Feb-18 11:33N 34°33' E 135°26'0 0.0
2017-Feb-18 10:33N 34°33' E 135°26'0 0.0
2017-Feb-18 09:33N 34°33' E 135°26'0 0.0
2017-Feb-18 08:33N 34°33' E 135°26'0 0.0
2017-Feb-18 07:33N 34°33' E 135°26'0 0.0
2017-Feb-18 06:33N 34°33' E 135°26'0 0.0
2017-Feb-18 05:33N 34°33' E 135°26'0 0.1
2017-Feb-18 04:33N 34°33' E 135°26'2 2.2
2017-Feb-18 03:32N 34°33' E 135°23'3 1.5
2017-Feb-18 01:29N 34°32' E 135°20'0 0.0
2017-Feb-18 00:29N 34°32' E 135°20'0 0.0
2017-Feb-17 23:17N 34°32' E 135°20'0 0.0
2017-Feb-17 22:29N 34°32' E 135°20'0 0.0
2017-Feb-17 21:29N 34°32' E 135°20'0 0.0
2017-Feb-17 20:29N 34°32' E 135°20'0 0.0
2017-Feb-17 19:17N 34°32' E 135°20'0 0.0
2017-Feb-17 18:23N 34°32' E 135°20'0 0.0
2017-Feb-17 16:29N 34°32' E 135°20'0 0.0
2017-Feb-17 15:29N 34°32' E 135°20'0 0.0
2017-Feb-17 14:23N 34°32' E 135°20'0 0.0
2017-Feb-17 13:28N 34°32' E 135°20'0 0.0
2017-Feb-17 12:22N 34°32' E 135°20'0 0.0
2017-Feb-17 11:04N 34°32' E 135°20'0 0.0
2017-Feb-17 10:28N 34°32' E 135°20'0 0.0
2017-Feb-17 09:22N 34°32' E 135°20'1 1.3
2017-Feb-17 08:33N 34°32' E 135°19'1313.2
2017-Feb-17 07:33N 34°35' E 135°03'18 0.8
2017-Feb-16 08:18N 34°40' E 134°42'1011.7
2017-Feb-16 07:30N 34°38' E 134°53'1011.1
2017-Feb-16 06:33N 34°35' E 135°06'2612.8
2017-Feb-16 04:33N 34°10' E 134°60'8 0.9
2017-Feb-15 20:06N 34°04' E 134°53'611.0
2017-Feb-15 19:33N 34°10' E 134°56'1412.2
2017-Feb-15 18:24N 34°24' E 135°00'911.1
2017-Feb-15 17:33N 34°33' E 135°03'7 7.2
2017-Feb-15 16:33N 34°35' E 134°55'11211.2
2017-Feb-15 06:33N 34°07' E 132°44'1210.9
2017-Feb-15 05:24N 34°04' E 132°29'6 0.4
2017-Feb-14 14:06N 34°08' E 132°24'712.3
2017-Feb-14 13:31N 34°03' E 132°30'1211.7
2017-Feb-14 12:30N 34°07' E 132°44'2 0.1
2017-Feb-13 05:33N 34°08' E 132°46'1313.2
2017-Feb-13 04:33N 34°02' E 132°32'3 0.2
2017-Feb-12 08:09N 34°04' E 132°29'610.9
2017-Feb-12 07:33N 34°03' E 132°37'  
Track history (hours):
 
Tides and Currents Weather Stations Pressure Air Temp Water Temp Dewpoint Dewpoint Depression Visibility Wind Speed Wind Dir Waves Ship Positions

Hikarimaru No.17

Last reported at 2017-Feb-20 21:26 UTC. Time now 2017-Feb-20 22:28 UTC.
Position N 35°32' E 140°02'.

Length 105 m; draft 6.5 m.

Type: Tanker. MMSI: 431000984.

Date/timePositionNaut miles runAvg speedWind from/ knotsBaromVisibWave heightAir tempDewpointWater temp
2017-Feb-20 21:26N 35°32' E 140°02'0 0.0
2017-Feb-20 20:10N 35°32' E 140°02'0 0.0
2017-Feb-20 18:33N 35°32' E 140°02'0 0.0
2017-Feb-20 17:32N 35°32' E 140°02'0 0.0
2017-Feb-20 16:30N 35°32' E 140°02'0 0.0
2017-Feb-20 15:32N 35°32' E 140°02'0 0.0
2017-Feb-20 14:30N 35°32' E 140°02'0 0.1
2017-Feb-20 13:32N 35°32' E 140°02'0 0.1
2017-Feb-20 12:33N 35°32' E 140°02'0 0.0
2017-Feb-20 10:18N 35°32' E 140°02'0 0.0
2017-Feb-20 02:31N 35°32' E 140°02'0 0.0
2017-Feb-20 01:24N 35°32' E 140°02'0 0.0
2017-Feb-20 00:28N 35°32' E 140°02'0 0.1
2017-Feb-19 23:32N 35°32' E 140°02'0 0.0
2017-Feb-19 22:27N 35°32' E 140°02'0 0.0
2017-Feb-19 21:29N 35°32' E 140°02'0 0.1
2017-Feb-19 20:26N 35°32' E 140°02'1011.4
2017-Feb-19 19:33N 35°28' E 139°51'1211.6
2017-Feb-19 18:33N 35°17' E 139°45'1111.3
2017-Feb-19 17:33N 35°06' E 139°43'1312.9
2017-Feb-19 16:31N 34°58' E 139°30'23010.8
2017-Feb-18 19:17N 33°60' E 134°60'1113.2
2017-Feb-18 18:28N 34°11' E 134°59'1211.7
2017-Feb-18 17:24N 34°23' E 135°02'1112.7
2017-Feb-18 16:33N 34°28' E 135°13'1111.3
2017-Feb-18 15:33N 34°33' E 135°25'0 0.3
2017-Feb-18 14:33N 34°33' E 135°26'0 0.0
2017-Feb-18 13:33N 34°33' E 135°26'0 0.0
2017-Feb-18 12:33N 34°33' E 135°26'0 0.0
2017-Feb-18 11:33N 34°33' E 135°26'0 0.0
2017-Feb-18 10:33N 34°33' E 135°26'0 0.0
2017-Feb-18 09:33N 34°33' E 135°26'0 0.0
2017-Feb-18 08:33N 34°33' E 135°26'0 0.0
2017-Feb-18 07:33N 34°33' E 135°26'0 0.0
2017-Feb-18 06:33N 34°33' E 135°26'0 0.0
2017-Feb-18 05:33N 34°33' E 135°26'0 0.1
2017-Feb-18 04:33N 34°33' E 135°26'2 2.2
2017-Feb-18 03:32N 34°33' E 135°23'3 1.5
2017-Feb-18 01:29N 34°32' E 135°20'0 0.0
2017-Feb-18 00:29N 34°32' E 135°20'0 0.0
2017-Feb-17 23:17N 34°32' E 135°20'0 0.0
2017-Feb-17 22:29N 34°32' E 135°20'0 0.0
2017-Feb-17 21:29N 34°32' E 135°20'0 0.0
2017-Feb-17 20:29N 34°32' E 135°20'0 0.0
2017-Feb-17 19:17N 34°32' E 135°20'0 0.0
2017-Feb-17 18:23N 34°32' E 135°20'0 0.0
2017-Feb-17 16:29N 34°32' E 135°20'0 0.0
2017-Feb-17 15:29N 34°32' E 135°20'0 0.0
2017-Feb-17 14:23N 34°32' E 135°20'0 0.0
2017-Feb-17 13:28N 34°32' E 135°20'0 0.0
2017-Feb-17 12:22N 34°32' E 135°20'0 0.0
2017-Feb-17 11:04N 34°32' E 135°20'0 0.0
2017-Feb-17 10:28N 34°32' E 135°20'0 0.0
2017-Feb-17 09:22N 34°32' E 135°20'1 1.3
2017-Feb-17 08:33N 34°32' E 135°19'1313.2
2017-Feb-17 07:33N 34°35' E 135°03'18 0.8
2017-Feb-16 08:18N 34°40' E 134°42'1011.7
2017-Feb-16 07:30N 34°38' E 134°53'1011.1
2017-Feb-16 06:33N 34°35' E 135°06'2612.8
2017-Feb-16 04:33N 34°10' E 134°60'8 0.9
2017-Feb-15 20:06N 34°04' E 134°53'611.0
2017-Feb-15 19:33N 34°10' E 134°56'1412.2
2017-Feb-15 18:24N 34°24' E 135°00'911.1
2017-Feb-15 17:33N 34°33' E 135°03'7 7.2
2017-Feb-15 16:33N 34°35' E 134°55'11211.2
2017-Feb-15 06:33N 34°07' E 132°44'1210.9
2017-Feb-15 05:24N 34°04' E 132°29'6 0.4
2017-Feb-14 14:06N 34°08' E 132°24'712.3
2017-Feb-14 13:31N 34°03' E 132°30'1211.7
2017-Feb-14 12:30N 34°07' E 132°44'2 0.1
2017-Feb-13 05:33N 34°08' E 132°46'1313.2
2017-Feb-13 04:33N 34°02' E 132°32'3 0.2
2017-Feb-12 08:09N 34°04' E 132°29'610.9
2017-Feb-12 07:33N 34°03' E 132°37'  

Dump ship's entire track history